createdAt,value
2023-05-11T00:00:01.537Z,9.72
2023-05-11T00:01:01.523Z,9.69
2023-05-11T00:02:01.548Z,9.73
2023-05-11T00:03:01.600Z,9.73
2023-05-11T00:04:01.597Z,9.72
2023-05-11T00:05:01.481Z,9.74
2023-05-11T00:06:01.466Z,9.74
2023-05-11T00:07:01.432Z,9.74
2023-05-11T00:08:01.422Z,9.76
2023-05-11T00:09:01.432Z,9.69
2023-05-11T00:10:01.387Z,9.68
2023-05-11T00:11:01.383Z,9.66
2023-05-11T00:12:01.387Z,9.66
2023-05-11T00:13:01.372Z,9.68
2023-05-11T00:14:01.341Z,9.68
2023-05-11T00:15:01.337Z,9.64
2023-05-11T00:16:01.336Z,9.61
2023-05-11T00:17:01.298Z,9.55
2023-05-11T00:18:01.333Z,9.48
2023-05-11T00:19:01.441Z,9.41
2023-05-11T00:20:01.274Z,9.43
2023-05-11T00:21:01.279Z,9.40
2023-05-11T00:22:01.269Z,9.36
2023-05-11T00:23:01.240Z,9.34
2023-05-11T00:24:01.204Z,9.32
2023-05-11T00:25:01.192Z,9.36
2023-05-11T00:26:01.183Z,9.36
2023-05-11T00:27:01.174Z,9.36
2023-05-11T00:28:01.192Z,9.32
2023-05-11T00:29:01.149Z,9.36
2023-05-11T00:30:01.145Z,9.36
2023-05-11T00:31:01.146Z,9.34
2023-05-11T00:32:01.102Z,9.34
2023-05-11T00:33:01.147Z,9.36
2023-05-11T00:34:01.093Z,9.36
2023-05-11T00:35:01.070Z,9.40
2023-05-11T00:36:01.048Z,9.39
2023-05-11T00:37:01.065Z,9.40
2023-05-11T00:38:01.029Z,9.37
2023-05-11T00:39:01.020Z,9.37
2023-05-11T00:40:01.023Z,9.39
2023-05-11T00:41:00.986Z,9.37
2023-05-11T00:42:00.969Z,9.41
2023-05-11T00:43:00.967Z,9.40
2023-05-11T00:44:00.951Z,9.43
2023-05-11T00:45:00.945Z,9.40
2023-05-11T00:46:00.936Z,9.39
2023-05-11T00:47:01.077Z,9.39
2023-05-11T00:48:00.922Z,9.37
2023-05-11T00:49:00.860Z,9.39
2023-05-11T00:50:00.889Z,9.40
2023-05-11T00:51:00.906Z,9.40
2023-05-11T00:52:00.819Z,9.43
2023-05-11T00:53:00.837Z,9.43
2023-05-11T00:54:00.792Z,9.41
2023-05-11T00:55:00.801Z,9.37
2023-05-11T00:56:00.793Z,9.39
2023-05-11T00:57:00.772Z,9.36
2023-05-11T00:58:00.754Z,9.36
2023-05-11T00:59:00.726Z,9.36
2023-05-11T01:00:00.729Z,9.39
2023-05-11T01:01:00.731Z,9.37
2023-05-11T01:02:00.760Z,9.39
2023-05-11T01:03:00.695Z,9.41
2023-05-11T01:04:00.653Z,9.43
2023-05-11T01:05:00.653Z,9.46
2023-05-11T01:06:00.634Z,9.46
2023-05-11T01:07:00.630Z,9.48
2023-05-11T01:08:00.651Z,9.47
2023-05-11T01:09:00.610Z,9.48
2023-05-11T01:10:00.590Z,9.50
2023-05-11T01:11:00.581Z,9.48
2023-05-11T01:12:00.580Z,9.47
2023-05-11T01:13:00.557Z,9.46
2023-05-11T01:14:00.533Z,9.46
2023-05-11T01:15:00.528Z,9.43
2023-05-11T01:16:00.517Z,9.40
2023-05-11T01:17:00.573Z,9.39
2023-05-11T01:18:00.554Z,9.40
2023-05-11T01:19:00.484Z,9.39
2023-05-11T01:20:00.469Z,9.37
2023-05-11T01:21:00.440Z,9.36
2023-05-11T01:22:00.428Z,9.34
2023-05-11T01:23:00.450Z,9.34
2023-05-11T01:24:00.420Z,9.32
2023-05-11T01:25:00.388Z,9.34
2023-05-11T01:26:00.361Z,9.34
2023-05-11T01:27:00.448Z,9.32
2023-05-11T01:28:00.366Z,9.31
2023-05-11T01:29:00.364Z,9.29
2023-05-11T01:30:00.327Z,9.32
2023-05-11T01:31:00.312Z,9.31
2023-05-11T01:32:00.336Z,9.32
2023-05-11T01:33:00.360Z,9.34
2023-05-11T01:34:00.300Z,9.34
2023-05-11T01:35:00.300Z,9.39
2023-05-11T01:36:00.227Z,9.37
2023-05-11T01:37:00.216Z,9.36
2023-05-11T01:38:00.218Z,9.36
2023-05-11T01:39:00.224Z,9.32
2023-05-11T01:40:00.214Z,9.29
2023-05-11T01:41:00.172Z,9.31
2023-05-11T01:42:00.166Z,9.32
2023-05-11T01:43:00.148Z,9.34
2023-05-11T01:44:00.156Z,9.34
2023-05-11T01:45:00.167Z,9.36
2023-05-11T01:46:00.211Z,9.37
2023-05-11T01:47:00.111Z,9.39
2023-05-11T01:48:00.191Z,9.39
2023-05-11T01:49:00.137Z,9.37
2023-05-11T01:50:00.040Z,9.36
2023-05-11T01:51:00.082Z,9.36
2023-05-11T01:51:59.998Z,9.36
2023-05-11T01:53:00.007Z,9.39
2023-05-11T01:53:59.998Z,9.37
2023-05-11T01:54:59.975Z,9.39
2023-05-11T01:55:59.986Z,9.40
2023-05-11T01:56:59.952Z,9.40
2023-05-11T01:57:59.929Z,9.40
2023-05-11T01:58:59.913Z,9.37
2023-05-11T01:59:59.909Z,9.39
2023-05-11T02:00:59.921Z,9.34
2023-05-11T02:02:00.000Z,9.34
2023-05-11T02:02:59.917Z,9.29
2023-05-11T02:03:59.880Z,9.29
2023-05-11T02:04:59.837Z,9.29
2023-05-11T02:05:59.815Z,9.31
2023-05-11T02:06:59.851Z,9.31
2023-05-11T02:07:59.825Z,9.29
2023-05-11T02:08:59.828Z,9.29
2023-05-11T02:09:59.785Z,9.26
2023-05-11T02:10:59.749Z,9.29
2023-05-11T02:11:59.749Z,9.26
2023-05-11T02:12:59.748Z,9.25
2023-05-11T02:13:59.720Z,9.28
2023-05-11T02:14:59.708Z,9.29
2023-05-11T02:15:59.720Z,9.31
2023-05-11T02:16:59.667Z,9.32
2023-05-11T02:17:59.709Z,9.32
2023-05-11T02:18:59.720Z,9.34
2023-05-11T02:19:59.629Z,9.34
2023-05-11T02:20:59.633Z,9.39
2023-05-11T02:21:59.614Z,9.39
2023-05-11T02:22:59.617Z,9.41
2023-05-11T02:23:59.593Z,9.39
2023-05-11T02:24:59.575Z,9.40
2023-05-11T02:25:59.547Z,9.39
2023-05-11T02:26:59.548Z,9.37
2023-05-11T02:27:59.547Z,9.37
2023-05-11T02:28:59.504Z,9.39
2023-05-11T02:29:59.507Z,9.37
2023-05-11T02:30:59.547Z,9.37
2023-05-11T02:31:59.467Z,9.32
2023-05-11T02:32:59.481Z,9.36
2023-05-11T02:33:59.492Z,9.34
2023-05-11T02:34:59.441Z,9.31
2023-05-11T02:35:59.428Z,9.28
2023-05-11T02:36:59.408Z,9.26
2023-05-11T02:37:59.381Z,9.28
2023-05-11T02:38:59.398Z,9.26
2023-05-11T02:39:59.369Z,9.26
2023-05-11T02:40:59.357Z,9.25
2023-05-11T02:41:59.332Z,9.23
2023-05-11T02:42:59.346Z,9.23
2023-05-11T02:43:59.353Z,9.22
2023-05-11T02:44:59.310Z,9.23
2023-05-11T02:45:59.319Z,9.25
2023-05-11T02:46:59.374Z,9.25
2023-05-11T02:47:59.289Z,9.28
2023-05-11T02:48:59.243Z,9.29
2023-05-11T02:49:59.237Z,9.29
2023-05-11T02:50:59.245Z,9.31
2023-05-11T02:51:59.213Z,9.31
2023-05-11T02:52:59.193Z,9.32
2023-05-11T02:53:59.182Z,9.32
2023-05-11T02:54:59.167Z,9.32
2023-05-11T02:55:59.202Z,9.34
2023-05-11T02:56:59.132Z,9.32
2023-05-11T02:57:59.178Z,9.34
2023-05-11T02:58:59.118Z,9.34
2023-05-11T02:59:59.151Z,9.32
2023-05-11T03:00:59.158Z,9.34
2023-05-11T03:01:59.211Z,9.34
2023-05-11T03:02:59.138Z,9.31
2023-05-11T03:03:59.077Z,9.32
2023-05-11T03:04:59.028Z,9.36
2023-05-11T03:05:59.039Z,9.37
2023-05-11T03:06:59.003Z,9.36
2023-05-11T03:07:59.075Z,9.36
2023-05-11T03:08:58.981Z,9.31
2023-05-11T03:09:58.964Z,9.28
2023-05-11T03:10:58.945Z,9.26
2023-05-11T03:11:58.929Z,9.25
2023-05-11T03:12:58.952Z,9.23
2023-05-11T03:13:58.929Z,9.23
2023-05-11T03:14:58.897Z,9.22
2023-05-11T03:15:58.905Z,9.19
2023-05-11T03:16:58.881Z,9.19
2023-05-11T03:17:58.906Z,9.22
2023-05-11T03:18:58.907Z,9.21
2023-05-11T03:19:58.837Z,9.21
2023-05-11T03:20:58.836Z,9.21
2023-05-11T03:21:58.806Z,9.21
2023-05-11T03:22:58.814Z,9.19
2023-05-11T03:23:58.765Z,9.18
2023-05-11T03:24:58.806Z,9.14
2023-05-11T03:25:58.791Z,9.18
2023-05-11T03:26:58.756Z,9.19
2023-05-11T03:27:58.763Z,9.16
2023-05-11T03:28:58.698Z,9.16
2023-05-11T03:29:58.720Z,9.16
2023-05-11T03:30:58.680Z,9.14
2023-05-11T03:31:58.717Z,9.14
2023-05-11T03:32:58.728Z,9.14
2023-05-11T03:33:58.675Z,9.14
2023-05-11T03:34:58.635Z,9.14
2023-05-11T03:35:58.619Z,9.14
2023-05-11T03:36:58.605Z,9.11
2023-05-11T03:37:58.603Z,9.13
2023-05-11T03:38:58.623Z,9.13
2023-05-11T03:39:58.558Z,9.10
2023-05-11T03:40:58.584Z,9.08
2023-05-11T03:41:58.537Z,9.04
2023-05-11T03:42:58.522Z,9.06
2023-05-11T03:43:58.554Z,9.03
2023-05-11T03:44:58.526Z,9.02
2023-05-11T03:45:58.541Z,9.04
2023-05-11T03:46:58.484Z,9.03
2023-05-11T03:47:58.510Z,9.00
2023-05-11T03:48:58.448Z,8.95
2023-05-11T03:49:58.484Z,8.92
2023-05-11T03:50:58.420Z,8.92
2023-05-11T03:51:58.424Z,8.91
2023-05-11T03:52:58.392Z,8.91
2023-05-11T03:53:58.381Z,8.94
2023-05-11T03:54:58.395Z,8.97
2023-05-11T03:55:58.360Z,9.00
2023-05-11T03:56:58.360Z,9.02
2023-05-11T03:57:58.344Z,9.03
2023-05-11T03:58:58.327Z,9.06
2023-05-11T03:59:58.299Z,9.06
2023-05-11T04:00:58.326Z,9.06
2023-05-11T04:01:58.271Z,9.04
2023-05-11T04:02:58.376Z,9.04
2023-05-11T04:03:58.282Z,9.02
2023-05-11T04:04:58.218Z,9.02
2023-05-11T04:05:58.244Z,9.02
2023-05-11T04:06:58.220Z,9.02
2023-05-11T04:07:58.197Z,9.03
2023-05-11T04:08:58.213Z,9.02
2023-05-11T04:09:58.169Z,9.00
2023-05-11T04:10:58.189Z,9.00
2023-05-11T04:11:58.143Z,9.00
2023-05-11T04:12:58.132Z,8.99
2023-05-11T04:13:58.127Z,8.95
2023-05-11T04:14:58.116Z,8.95
2023-05-11T04:15:58.086Z,8.97
2023-05-11T04:16:58.098Z,9.00
2023-05-11T04:17:58.155Z,9.03
2023-05-11T04:18:58.099Z,8.99
2023-05-11T04:19:58.021Z,8.97
2023-05-11T04:20:58.002Z,8.92
2023-05-11T04:21:58.031Z,8.92
2023-05-11T04:22:57.991Z,8.94
2023-05-11T04:23:58.002Z,8.95
2023-05-11T04:24:57.962Z,8.99
2023-05-11T04:25:57.959Z,9.00
2023-05-11T04:26:57.932Z,9.02
2023-05-11T04:27:57.937Z,9.03
2023-05-11T04:28:57.976Z,9.06
2023-05-11T04:29:57.914Z,9.06
2023-05-11T04:30:57.903Z,9.08
2023-05-11T04:31:57.911Z,9.10
2023-05-11T04:32:57.881Z,9.08
2023-05-11T04:33:57.888Z,9.08
2023-05-11T04:34:57.872Z,9.10
2023-05-11T04:35:57.813Z,9.10
2023-05-11T04:36:57.811Z,9.11
2023-05-11T04:37:57.805Z,9.11
2023-05-11T04:38:57.779Z,9.14
2023-05-11T04:39:57.817Z,9.13
2023-05-11T04:40:57.774Z,9.14
2023-05-11T04:41:57.763Z,9.13
2023-05-11T04:42:57.750Z,9.16
2023-05-11T04:43:57.721Z,9.16
2023-05-11T04:44:57.694Z,9.14
2023-05-11T04:45:57.719Z,9.13
2023-05-11T04:46:57.776Z,9.13
2023-05-11T04:47:57.819Z,9.14
2023-05-11T04:48:57.696Z,9.14
2023-05-11T04:49:57.673Z,9.11
2023-05-11T04:50:57.690Z,9.10
2023-05-11T04:51:57.632Z,9.10
2023-05-11T04:52:57.601Z,9.11
2023-05-11T04:53:57.581Z,9.11
2023-05-11T04:54:57.572Z,9.13
2023-05-11T04:55:57.558Z,9.13
2023-05-11T04:56:57.584Z,9.13
2023-05-11T04:57:57.568Z,9.13
2023-05-11T04:58:57.508Z,9.14
2023-05-11T04:59:57.630Z,9.13
2023-05-11T05:00:57.519Z,9.10
2023-05-11T05:01:57.508Z,9.06
2023-05-11T05:02:57.537Z,9.04
2023-05-11T05:03:57.489Z,9.02
2023-05-11T05:04:57.434Z,8.99
2023-05-11T05:05:57.425Z,8.97
2023-05-11T05:06:57.393Z,9.00
2023-05-11T05:07:57.426Z,9.02
2023-05-11T05:08:57.373Z,9.04
2023-05-11T05:09:57.361Z,9.06
2023-05-11T05:10:57.382Z,9.04
2023-05-11T05:11:57.358Z,9.04
2023-05-11T05:12:57.370Z,9.06
2023-05-11T05:13:57.325Z,9.08
2023-05-11T05:14:57.291Z,9.08
2023-05-11T05:15:57.288Z,9.10
2023-05-11T05:16:57.306Z,9.08
2023-05-11T05:17:57.333Z,9.10
2023-05-11T05:18:57.278Z,9.04
2023-05-11T05:19:57.239Z,9.02
2023-05-11T05:20:57.237Z,9.02
2023-05-11T05:21:57.202Z,9.02
2023-05-11T05:22:57.224Z,9.03
2023-05-11T05:23:57.274Z,9.04
2023-05-11T05:24:57.186Z,9.06
2023-05-11T05:25:57.161Z,9.10
2023-05-11T05:26:57.130Z,9.08
2023-05-11T05:27:57.144Z,9.08
2023-05-11T05:28:57.141Z,9.08
2023-05-11T05:29:57.099Z,9.10
2023-05-11T05:30:57.597Z,9.10
2023-05-11T05:31:57.063Z,9.10
2023-05-11T05:32:57.145Z,9.10
2023-05-11T05:33:57.074Z,9.08
2023-05-11T05:34:57.040Z,9.08
2023-05-11T05:35:57.059Z,9.06
2023-05-11T05:36:57.033Z,9.04
2023-05-11T05:37:57.077Z,9.04
2023-05-11T05:38:56.981Z,9.00
2023-05-11T05:39:56.979Z,9.00
2023-05-11T05:40:56.960Z,9.02
2023-05-11T05:41:56.927Z,9.04
2023-05-11T05:42:56.921Z,9.03
2023-05-11T05:43:56.896Z,9.03
2023-05-11T05:44:56.892Z,8.99
2023-05-11T05:45:56.939Z,8.95
2023-05-11T05:46:56.909Z,8.94
2023-05-11T05:47:56.910Z,8.94
2023-05-11T05:48:56.844Z,8.91
2023-05-11T05:49:56.825Z,8.92
2023-05-11T05:50:56.845Z,8.92
2023-05-11T05:51:56.804Z,8.91
2023-05-11T05:52:56.802Z,8.91
2023-05-11T05:53:56.809Z,8.88
2023-05-11T05:54:56.762Z,8.88
2023-05-11T05:55:56.766Z,8.88
2023-05-11T05:56:56.732Z,8.88
2023-05-11T05:57:56.729Z,8.87
2023-05-11T05:58:56.694Z,8.88
2023-05-11T05:59:56.716Z,8.89
2023-05-11T06:00:56.719Z,8.91
2023-05-11T06:01:56.699Z,8.94
2023-05-11T06:02:56.717Z,8.97
2023-05-11T06:03:56.939Z,9.02
2023-05-11T06:04:56.698Z,9.02
2023-05-11T06:05:56.622Z,9.04
2023-05-11T06:06:56.615Z,9.06
2023-05-11T06:08:09.119Z,9.11
2023-05-11T06:08:56.557Z,9.14
2023-05-11T06:09:56.544Z,9.14
2023-05-11T06:10:56.591Z,9.18
2023-05-11T06:11:56.530Z,9.18
2023-05-11T06:12:56.520Z,9.18
2023-05-11T06:13:56.508Z,9.19
2023-05-11T06:14:56.487Z,9.22
2023-05-11T06:15:56.478Z,9.25
2023-05-11T06:16:56.488Z,9.31
2023-05-11T06:17:56.564Z,9.32
2023-05-11T06:18:56.435Z,9.37
2023-05-11T06:19:56.464Z,9.40
2023-05-11T06:20:56.417Z,9.41
2023-05-11T06:21:56.402Z,9.43
2023-05-11T06:22:56.411Z,9.47
2023-05-11T06:23:56.389Z,9.48
2023-05-11T06:24:56.356Z,9.50
2023-05-11T06:25:56.363Z,9.51
2023-05-11T06:26:56.328Z,9.55
2023-05-11T06:27:56.323Z,9.54
2023-05-11T06:28:56.354Z,9.55
2023-05-11T06:29:56.291Z,9.56
2023-05-11T06:30:56.283Z,9.61
2023-05-11T06:31:56.362Z,9.62
2023-05-11T06:32:56.275Z,9.62
2023-05-11T06:33:56.240Z,9.64
2023-05-11T06:34:56.232Z,9.66
2023-05-11T06:35:56.206Z,9.66
2023-05-11T06:36:56.186Z,9.68
2023-05-11T06:37:56.180Z,9.72
2023-05-11T06:38:56.157Z,9.72
2023-05-11T06:39:56.189Z,9.72
2023-05-11T06:40:56.123Z,9.72
2023-05-11T06:41:57.561Z,9.68
2023-05-11T06:42:56.109Z,9.65
2023-05-11T06:43:56.086Z,9.62
2023-05-11T06:44:56.147Z,9.59
2023-05-11T06:45:56.135Z,9.59
2023-05-11T06:46:56.092Z,9.58
2023-05-11T06:47:56.096Z,9.51
2023-05-11T06:48:56.029Z,9.54
2023-05-11T06:49:56.025Z,9.54
2023-05-11T06:50:56.037Z,9.56
2023-05-11T06:51:56.011Z,9.56
2023-05-11T06:52:55.980Z,9.56
2023-05-11T06:53:55.965Z,9.58
2023-05-11T06:54:55.978Z,9.54
2023-05-11T06:55:56.002Z,9.54
2023-05-11T06:56:55.931Z,9.55
2023-05-11T06:57:55.933Z,9.61
2023-05-11T06:58:55.898Z,9.61
2023-05-11T06:59:55.907Z,9.59
2023-05-11T07:00:55.945Z,9.58
2023-05-11T07:01:55.863Z,9.54
2023-05-11T07:02:55.884Z,9.56
2023-05-11T07:03:55.835Z,9.56
2023-05-11T07:04:55.913Z,9.55
2023-05-11T07:05:55.779Z,9.59
2023-05-11T07:06:55.787Z,9.61
2023-05-11T07:07:55.766Z,9.58
2023-05-11T07:08:55.775Z,9.51
2023-05-11T07:09:55.773Z,9.44
2023-05-11T07:10:55.730Z,9.41
2023-05-11T07:11:55.726Z,9.34
2023-05-11T07:12:55.762Z,9.32
2023-05-11T07:13:55.695Z,9.32
2023-05-11T07:14:55.674Z,9.29
2023-05-11T07:15:57.527Z,9.28
2023-05-11T07:16:55.711Z,9.23
2023-05-11T07:17:55.720Z,9.21
2023-05-11T07:18:55.692Z,9.19
2023-05-11T07:19:55.598Z,9.22
2023-05-11T07:20:55.597Z,9.21
2023-05-11T07:21:55.591Z,9.23
2023-05-11T07:22:55.571Z,9.26
2023-05-11T07:23:55.578Z,9.31
2023-05-11T07:24:55.546Z,9.37
2023-05-11T07:25:55.548Z,9.39
2023-05-11T07:26:55.507Z,9.43
2023-05-11T07:27:55.557Z,9.46
2023-05-11T07:28:55.490Z,9.47
2023-05-11T07:29:55.521Z,9.47
2023-05-11T07:30:55.496Z,9.46
2023-05-11T07:31:55.552Z,9.44
2023-05-11T07:32:55.453Z,9.44
2023-05-11T07:33:55.450Z,9.41
2023-05-11T07:34:55.453Z,9.43
2023-05-11T07:35:55.382Z,9.41
2023-05-11T07:36:55.384Z,9.43
2023-05-11T07:37:55.373Z,9.44
2023-05-11T07:38:55.354Z,9.43
2023-05-11T07:39:55.374Z,9.47
2023-05-11T07:40:55.324Z,9.47
2023-05-11T07:41:55.303Z,9.50
2023-05-11T07:42:55.325Z,9.50
2023-05-11T07:43:55.295Z,9.50
2023-05-11T07:44:55.270Z,9.50
2023-05-11T07:45:55.291Z,9.54
2023-05-11T07:46:55.248Z,9.55
2023-05-11T07:47:55.303Z,9.56
2023-05-11T07:49:03.392Z,9.58
2023-05-11T07:49:55.236Z,9.61
2023-05-11T07:50:55.202Z,9.65
2023-05-11T07:51:55.181Z,9.65
2023-05-11T07:52:55.199Z,9.64
2023-05-11T07:53:55.160Z,9.68
2023-05-11T07:54:55.232Z,9.72
2023-05-11T07:55:55.172Z,9.73
2023-05-11T07:56:55.106Z,9.73
2023-05-11T07:57:55.105Z,9.77
2023-05-11T07:58:55.136Z,9.82
2023-05-11T07:59:55.087Z,9.89
2023-05-11T08:00:55.062Z,9.94
2023-05-11T08:01:55.111Z,9.98
2023-05-11T08:02:55.184Z,10.02
2023-05-11T08:03:55.041Z,10.01
2023-05-11T08:04:55.001Z,10.01
2023-05-11T08:05:55.023Z,10.07
2023-05-11T08:06:54.986Z,10.13
2023-05-11T08:07:54.996Z,10.17
2023-05-11T08:08:54.952Z,10.23
2023-05-11T08:09:54.954Z,10.28
2023-05-11T08:10:54.927Z,10.35
2023-05-11T08:11:54.917Z,10.40
2023-05-11T08:12:54.933Z,10.44
2023-05-11T08:13:54.891Z,10.49
2023-05-11T08:14:54.897Z,10.53
2023-05-11T08:15:54.932Z,10.54
2023-05-11T08:16:54.850Z,10.48
2023-05-11T08:17:54.845Z,10.44
2023-05-11T08:18:54.850Z,10.42
2023-05-11T08:19:54.798Z,10.42
2023-05-11T08:20:54.824Z,10.41
2023-05-11T08:21:54.806Z,10.41
2023-05-11T08:22:54.767Z,10.41
2023-05-11T08:23:54.748Z,10.42
2023-05-11T08:24:54.755Z,10.44
2023-05-11T08:25:54.754Z,10.48
2023-05-11T08:26:54.736Z,10.44
2023-05-11T08:27:54.695Z,10.41
2023-05-11T08:28:54.682Z,10.44
2023-05-11T08:29:54.665Z,10.46
2023-05-11T08:30:54.652Z,10.49
2023-05-11T08:31:54.703Z,10.53
2023-05-11T08:32:59.050Z,10.49
2023-05-11T08:33:54.764Z,10.51
2023-05-11T08:34:54.709Z,10.54
2023-05-11T08:35:54.657Z,10.51
2023-05-11T08:36:54.636Z,10.51
2023-05-11T08:37:54.605Z,10.53
2023-05-11T08:38:59.040Z,10.54
2023-05-11T08:39:54.544Z,10.54
2023-05-11T08:40:54.531Z,10.54
2023-05-11T08:41:54.517Z,10.54
2023-05-11T08:42:54.536Z,10.54
2023-05-11T08:43:54.474Z,10.54
2023-05-11T08:44:54.474Z,10.54
2023-05-11T08:45:54.573Z,10.56
2023-05-11T08:47:11.152Z,10.57
2023-05-11T08:47:54.441Z,10.59
2023-05-11T08:48:54.428Z,10.60
2023-05-11T08:49:54.412Z,10.61
2023-05-11T08:50:54.418Z,10.61
2023-05-11T08:51:54.404Z,10.60
2023-05-11T08:52:54.376Z,10.61
2023-05-11T08:53:54.367Z,10.63
2023-05-11T08:54:54.327Z,10.68
2023-05-11T08:55:54.330Z,10.74
2023-05-11T08:56:54.429Z,10.78
2023-05-11T08:57:54.359Z,10.81
2023-05-11T08:58:55.994Z,10.81
2023-05-11T08:59:54.270Z,10.78
2023-05-11T09:00:54.343Z,10.81
2023-05-11T09:01:54.447Z,10.84
2023-05-11T09:02:54.272Z,10.86
2023-05-11T09:03:54.222Z,10.87
2023-05-11T09:04:54.221Z,10.90
2023-05-11T09:05:54.221Z,10.92
2023-05-11T09:06:54.208Z,10.93
2023-05-11T09:07:54.158Z,10.94
2023-05-11T09:08:54.141Z,10.94
2023-05-11T09:09:54.164Z,10.97
2023-05-11T09:10:54.126Z,10.97
2023-05-11T09:11:54.107Z,11.00
2023-05-11T09:12:54.281Z,11.04
2023-05-11T09:13:54.101Z,11.00
2023-05-11T09:14:54.064Z,10.96
2023-05-11T09:15:54.081Z,10.96
2023-05-11T09:16:54.179Z,10.96
2023-05-11T09:17:54.079Z,10.99
2023-05-11T09:18:54.078Z,10.99
2023-05-11T09:19:53.994Z,10.99
2023-05-11T09:20:53.990Z,11.00
2023-05-11T09:21:54.000Z,11.00
2023-05-11T09:22:53.966Z,11.04
2023-05-11T09:23:53.958Z,11.05
2023-05-11T09:24:53.937Z,11.07
2023-05-11T09:25:53.928Z,11.05
2023-05-11T09:26:53.978Z,11.05
2023-05-11T09:27:53.919Z,11.07
2023-05-11T09:29:02.368Z,11.08
2023-05-11T09:29:53.861Z,11.07
2023-05-11T09:30:53.966Z,11.00
2023-05-11T09:31:53.866Z,10.99
2023-05-11T09:32:53.925Z,11.00
2023-05-11T09:33:53.816Z,11.00
2023-05-11T09:34:53.812Z,10.97
2023-05-11T09:35:53.806Z,10.99
2023-05-11T09:36:53.799Z,10.97
2023-05-11T09:37:53.788Z,10.97
2023-05-11T09:38:57.246Z,10.96
2023-05-11T09:40:53.726Z,10.96
2023-05-11T09:41:53.736Z,10.94
2023-05-11T09:42:53.711Z,10.97
2023-05-11T09:43:53.739Z,10.96
2023-05-11T09:44:53.669Z,10.99
2023-05-11T09:45:53.711Z,10.99
2023-05-11T09:46:53.830Z,10.99
2023-05-11T09:47:53.688Z,10.97
2023-05-11T09:48:53.625Z,10.99
2023-05-11T09:49:53.634Z,11.00
2023-05-11T09:50:53.593Z,11.02
2023-05-11T09:51:53.566Z,11.00
2023-05-11T09:52:53.581Z,11.04
2023-05-11T09:53:53.578Z,11.07
2023-05-11T09:54:53.534Z,11.11
2023-05-11T09:55:53.528Z,11.14
2023-05-11T09:56:53.525Z,11.15
2023-05-11T09:57:53.488Z,11.19
2023-05-11T09:58:53.524Z,11.19
2023-05-11T09:59:53.463Z,11.23
2023-05-11T10:00:53.470Z,11.22
2023-05-11T10:01:53.482Z,11.23
2023-05-11T10:02:53.497Z,11.25
2023-05-11T10:03:56.379Z,11.27
2023-05-11T10:04:53.396Z,11.32
2023-05-11T10:05:53.398Z,11.33
2023-05-11T10:06:53.864Z,11.35
2023-05-11T10:07:53.367Z,11.35
2023-05-11T10:08:53.349Z,11.35
2023-05-11T10:09:53.348Z,11.40
2023-05-11T10:10:53.343Z,11.40
2023-05-11T10:11:53.321Z,11.37
2023-05-11T10:12:53.295Z,11.40
2023-05-11T10:13:53.270Z,11.40
2023-05-11T10:14:53.292Z,11.41
2023-05-11T10:15:53.273Z,11.41
2023-05-11T10:16:53.298Z,11.37
2023-05-11T10:17:53.286Z,11.36
2023-05-11T10:18:53.250Z,11.32
2023-05-11T10:19:53.234Z,11.32
2023-05-11T10:20:53.207Z,11.30
2023-05-11T10:21:53.196Z,11.30
2023-05-11T10:22:53.173Z,11.33
2023-05-11T10:23:53.160Z,11.33
2023-05-11T10:24:53.173Z,11.33
2023-05-11T10:25:53.192Z,11.35
2023-05-11T10:26:53.110Z,11.35
2023-05-11T10:27:53.089Z,11.33
2023-05-11T10:28:53.089Z,11.33
2023-05-11T10:29:53.094Z,11.35
2023-05-11T10:30:53.085Z,11.35
2023-05-11T10:31:53.108Z,11.35
2023-05-11T10:32:53.047Z,11.36
2023-05-11T10:33:53.026Z,11.33
2023-05-11T10:34:53.000Z,11.27
2023-05-11T10:35:54.188Z,11.25
2023-05-11T10:36:52.957Z,11.22
2023-05-11T10:37:52.971Z,11.23
2023-05-11T10:38:52.949Z,11.23
2023-05-11T10:39:52.938Z,11.22
2023-05-11T10:40:52.949Z,11.22
2023-05-11T10:41:52.900Z,11.25
2023-05-11T10:42:52.906Z,11.27
2023-05-11T10:43:52.877Z,11.25
2023-05-11T10:44:52.926Z,11.25
2023-05-11T10:45:52.956Z,11.25
2023-05-11T10:46:52.827Z,11.26
2023-05-11T10:47:52.829Z,11.26
2023-05-11T10:48:52.845Z,11.27
2023-05-11T10:49:52.782Z,11.30
2023-05-11T10:50:52.769Z,11.27
2023-05-11T10:51:52.770Z,11.26
2023-05-11T10:52:52.780Z,11.27
2023-05-11T10:53:52.775Z,11.26
2023-05-11T10:54:52.738Z,11.19
2023-05-11T10:55:52.724Z,11.14
2023-05-11T10:56:52.724Z,11.14
2023-05-11T10:57:52.682Z,11.12
2023-05-11T10:58:52.671Z,11.12
2023-05-11T10:59:52.678Z,11.17
2023-05-11T11:00:52.720Z,11.18
2023-05-11T11:01:52.665Z,11.19
2023-05-11T11:02:52.665Z,11.23
2023-05-11T11:03:52.622Z,11.26
2023-05-11T11:04:52.597Z,11.26
2023-05-11T11:05:52.626Z,11.29
2023-05-11T11:06:52.630Z,11.29
2023-05-11T11:07:52.576Z,11.30
2023-05-11T11:08:52.545Z,11.26
2023-05-11T11:09:52.535Z,11.22
2023-05-11T11:10:52.522Z,11.19
2023-05-11T11:11:52.524Z,11.22
2023-05-11T11:12:52.503Z,11.23
2023-05-11T11:13:52.512Z,11.23
2023-05-11T11:14:52.475Z,11.18
2023-05-11T11:15:52.475Z,11.19
2023-05-11T11:16:52.500Z,11.23
2023-05-11T11:17:52.465Z,11.22
2023-05-11T11:18:52.454Z,11.23
2023-05-11T11:19:52.423Z,11.23
2023-05-11T11:20:52.411Z,11.23
2023-05-11T11:21:52.371Z,11.25
2023-05-11T11:22:52.359Z,11.25
2023-05-11T11:23:52.358Z,11.23
2023-05-11T11:24:52.348Z,11.25
2023-05-11T11:25:52.337Z,11.26
2023-05-11T11:26:52.333Z,11.27
2023-05-11T11:27:52.315Z,11.27
2023-05-11T11:28:52.273Z,11.27
2023-05-11T11:29:52.290Z,11.27
2023-05-11T11:30:52.281Z,11.27
2023-05-11T11:31:52.230Z,11.27
2023-05-11T11:32:52.330Z,11.23
2023-05-11T11:33:52.209Z,11.25
2023-05-11T11:34:52.222Z,11.25
2023-05-11T11:35:52.191Z,11.25
2023-05-11T11:36:52.174Z,11.26
2023-05-11T11:37:52.189Z,11.23
2023-05-11T11:38:52.154Z,11.26
2023-05-11T11:39:52.145Z,11.26
2023-05-11T11:40:52.677Z,11.26
2023-05-11T11:41:52.122Z,11.25
2023-05-11T11:42:52.107Z,11.25
2023-05-11T11:43:53.039Z,11.23
2023-05-11T11:44:52.060Z,11.22
2023-05-11T11:45:52.056Z,11.22
2023-05-11T11:46:52.158Z,11.23
2023-05-11T11:47:52.081Z,11.19
2023-05-11T11:48:54.863Z,11.18
2023-05-11T11:49:52.014Z,11.19
2023-05-11T11:50:51.980Z,11.22
2023-05-11T11:51:51.980Z,11.23
2023-05-11T11:52:51.990Z,11.22
2023-05-11T11:53:51.966Z,11.22
2023-05-11T11:54:51.955Z,11.22
2023-05-11T11:55:52.021Z,11.25
2023-05-11T11:56:51.909Z,11.25
2023-05-11T11:57:51.924Z,11.26
2023-05-11T11:58:51.886Z,11.23
2023-05-11T11:59:51.860Z,11.26
2023-05-11T12:00:51.865Z,11.25
2023-05-11T12:01:51.835Z,11.27
2023-05-11T12:02:51.894Z,11.27
2023-05-11T12:03:51.953Z,11.27
2023-05-11T12:04:51.819Z,11.27
2023-05-11T12:05:51.814Z,11.27
2023-05-11T12:06:51.769Z,11.27
2023-05-11T12:07:51.744Z,11.30
2023-05-11T12:08:51.767Z,11.30
2023-05-11T12:09:51.782Z,11.33
2023-05-11T12:10:51.708Z,11.32
2023-05-11T12:11:51.698Z,11.32
2023-05-11T12:12:51.718Z,11.33
2023-05-11T12:13:51.685Z,11.32
2023-05-11T12:14:51.689Z,11.32
2023-05-11T12:15:51.663Z,11.32
2023-05-11T12:16:51.669Z,11.33
2023-05-11T12:17:51.659Z,11.33
2023-05-11T12:18:51.633Z,11.33
2023-05-11T12:19:51.608Z,11.33
2023-05-11T12:20:51.578Z,11.35
2023-05-11T12:21:51.558Z,11.32
2023-05-11T12:22:51.543Z,11.30
2023-05-11T12:23:51.545Z,11.30
2023-05-11T12:24:51.560Z,11.29
2023-05-11T12:25:51.573Z,11.29
2023-05-11T12:26:51.497Z,11.25
2023-05-11T12:27:51.511Z,11.25
2023-05-11T12:28:51.495Z,11.26
2023-05-11T12:29:51.551Z,11.26
2023-05-11T12:30:51.470Z,11.26
2023-05-11T12:31:51.467Z,11.26
2023-05-11T12:32:56.453Z,11.26
2023-05-11T12:33:51.442Z,11.26
2023-05-11T12:34:51.400Z,11.25
2023-05-11T12:35:51.406Z,11.26
2023-05-11T12:36:51.357Z,11.26
2023-05-11T12:37:51.359Z,11.26
2023-05-11T12:38:51.337Z,11.27
2023-05-11T12:39:51.342Z,11.26
2023-05-11T12:40:51.349Z,11.29
2023-05-11T12:41:51.309Z,11.27
2023-05-11T12:42:51.295Z,11.26
2023-05-11T12:43:51.275Z,11.26
2023-05-11T12:44:51.268Z,11.26
2023-05-11T12:45:51.309Z,11.25
2023-05-11T12:46:51.240Z,11.23
2023-05-11T12:47:51.300Z,11.22
2023-05-11T12:48:51.231Z,11.22
2023-05-11T12:49:51.200Z,11.22
2023-05-11T12:50:51.180Z,11.23
2023-05-11T12:51:51.191Z,11.18
2023-05-11T12:52:51.196Z,11.18
2023-05-11T12:53:51.144Z,11.15
2023-05-11T12:54:51.135Z,11.11
2023-05-11T12:55:51.118Z,11.08
2023-05-11T12:56:51.092Z,11.10
2023-05-11T12:57:51.113Z,11.08
2023-05-11T12:58:51.087Z,11.10
2023-05-11T12:59:51.062Z,11.10
2023-05-11T13:00:51.055Z,11.11
2023-05-11T13:01:51.167Z,11.10
2023-05-11T13:02:51.263Z,11.10
2023-05-11T13:03:51.104Z,11.11
2023-05-11T13:04:50.985Z,11.12
2023-05-11T13:05:50.980Z,11.11
2023-05-11T13:06:50.986Z,11.12
2023-05-11T13:07:50.951Z,11.12
2023-05-11T13:08:50.968Z,11.12